Time;durP1;ratioP1;P1;durP2;ratioP2;P2;SDS_P1;SDS_P2;PMS_P1;PMS_P2;Temp;Humidity;BMP_temperature;BMP_pressure;BME280_temperature;BME280_humidity;BME280_pressure;Samples;Min_cycle;Max_cycle;Signal;HPM_P1;HPM_P2
2021/03/21 12:51:33;;;;;;;3.60;2.80;;;;;;;22.58;38.98;99406.41;5110591;27;20383;-73
2021/03/21 13:06:27;;;;;;;6.30;4.35;;;;;;;17.95;39.89;99371.25;5104609;27;20379;-52
2021/03/21 13:08:53;;;;;;;5.32;4.82;;;;;;;13.47;47.03;99377.50;5047739;27;20059;-52
2021/03/21 13:11:18;;;;;;;7.45;5.80;;;;;;;10.81;52.91;99367.91;5067901;28;20082;-51
2021/03/21 13:13:44;;;;;;;6.70;5.97;;;;;;;8.96;59.76;99371.53;5067178;28;20409;-41
2021/03/21 13:16:11;;;;;;;7.30;6.20;;;;;;;8.49;61.62;99362.63;5057515;28;20052;-39
2021/03/21 13:18:36;;;;;;;9.55;6.55;;;;;;;7.34;64.64;99368.28;5054670;28;20710;-40
2021/03/21 13:21:02;;;;;;;9.68;6.72;;;;;;;6.35;68.16;99358.34;5056800;28;20022;-38
2021/03/21 13:23:27;;;;;;;8.52;6.38;;;;;;;5.77;70.94;99344.16;5054061;28;20103;-40
2021/03/21 13:25:53;;;;;;;8.75;6.53;;;;;;;5.60;71.76;99332.97;5055640;28;20044;-40
2021/03/21 13:28:19;;;;;;;10.25;7.18;;;;;;;5.31;73.40;99339.00;5055987;28;20493;-40
2021/03/21 13:30:46;;;;;;;8.65;5.90;;;;;;;4.91;74.16;99336.53;5065107;28;20067;-40
2021/03/21 13:33:22;;;;;;;24.55;12.75;;;;;;;4.75;73.96;99319.03;5067176;28;20033;-39
2021/03/21 13:35:48;;;;;;;10.13;6.68;;;;;;;4.84;74.17;99325.06;5066391;28;20041;-39
2021/03/21 13:38:14;;;;;;;8.73;6.10;;;;;;;4.94;74.03;99311.66;5066043;28;20403;-40
2021/03/21 13:40:40;;;;;;;8.07;5.50;;;;;;;4.87;73.55;99329.97;5066385;28;20081;-40
2021/03/21 13:43:07;;;;;;;7.30;5.43;;;;;;;4.46;75.77;99310.00;5066122;28;20040;-40
2021/03/21 13:45:33;;;;;;;8.15;5.57;;;;;;;4.62;75.92;99321.44;5065872;28;20012;-40
2021/03/21 13:47:58;;;;;;;8.57;5.68;;;;;;;4.82;76.29;99332.34;5066236;28;20173;-40
2021/03/21 13:50:24;;;;;;;8.40;5.50;;;;;;;4.58;75.43;99315.69;5065833;28;20477;-40
2021/03/21 13:52:50;;;;;;;9.63;6.00;;;;;;;4.47;76.78;99316.09;5065723;28;20510;-40
2021/03/21 13:55:27;;;;;;;8.68;5.93;;;;;;;4.12;77.74;99315.63;5065919;28;20025;-39
2021/03/21 13:57:53;;;;;;;9.32;6.25;;;;;;;4.08;79.69;99299.34;5065907;28;20096;-41
2021/03/21 14:00:20;;;;;;;9.77;6.40;;;;;;;4.26;78.24;99275.38;5065865;28;20028;-39
2021/03/21 14:02:46;;;;;;;8.68;5.97;;;;;;;4.09;78.41;99255.38;5065977;28;20021;-39
2021/03/21 14:05:11;;;;;;;10.02;6.47;;;;;;;4.36;78.45;99224.28;5059765;28;20084;-40
2021/03/21 14:07:37;;;;;;;9.05;6.15;;;;;;;4.09;78.69;99208.84;5045736;28;20124;-39
2021/03/21 14:10:03;;;;;;;11.48;7.07;;;;;;;4.23;79.64;99201.97;5057920;28;20033;-40
2021/03/21 14:12:29;;;;;;;10.60;6.90;;;;;;;4.98;77.97;99215.34;5048337;28;20059;-39
2021/03/21 14:14:54;;;;;;;9.40;6.57;;;;;;;4.61;77.68;99215.19;5064119;28;20052;-41
2021/03/21 14:17:20;;;;;;;9.10;5.70;;;;;;;4.38;78.11;99220.50;5058696;28;20036;-39
2021/03/21 14:19:45;;;;;;;10.80;7.35;;;;;;;4.49;78.05;99213.97;5042783;28;20649;-40
2021/03/21 14:22:11;;;;;;;11.40;7.35;;;;;;;4.36;78.80;99233.03;5032776;28;20083;-39
2021/03/21 14:24:36;;;;;;;11.90;7.90;;;;;;;4.57;78.05;99235.00;5032358;28;20578;-40
2021/03/21 14:27:02;;;;;;;10.55;6.63;;;;;;;4.37;78.44;99239.91;5032610;28;20021;-38
2021/03/21 14:29:28;;;;;;;11.70;7.65;;;;;;;4.30;79.21;99233.69;5044247;28;20455;-39
2021/03/21 14:31:53;;;;;;;12.50;8.00;;;;;;;4.61;78.62;99243.38;5052486;28;20029;-39
2021/03/21 14:34:19;;;;;;;13.80;8.57;;;;;;;4.54;78.44;99235.34;5045869;28;20339;-39
2021/03/21 14:36:45;;;;;;;17.23;10.02;;;;;;;4.70;78.17;99234.38;5038625;28;20025;-52
2021/03/21 14:39:10;;;;;;;12.98;8.35;;;;;;;4.73;77.95;99228.75;5048121;28;20033;-51
2021/03/21 14:41:36;;;;;;;11.40;7.55;;;;;;;4.71;77.30;99209.66;5044129;28;20463;-49
2021/03/21 14:44:01;;;;;;;10.50;6.95;;;;;;;4.73;77.20;99210.31;5036281;28;20014;-50
2021/03/21 14:46:27;;;;;;;10.43;6.90;;;;;;;4.27;78.56;99200.63;5031384;28;20028;-49
2021/03/21 14:48:52;;;;;;;10.57;7.22;;;;;;;4.10;78.41;99199.09;5043114;28;20071;-51
2021/03/21 14:51:18;;;;;;;12.55;7.93;;;;;;;4.23;79.28;99194.09;5052165;28;20021;-51
2021/03/21 14:53:43;;;;;;;10.75;7.53;;;;;;;4.50;78.85;99186.63;5052294;28;20036;-50
2021/03/21 14:56:09;;;;;;;14.35;7.90;;;;;;;4.53;77.90;99186.25;5052325;28;20397;-37
2021/03/21 14:58:34;;;;;;;11.05;7.55;;;;;;;4.26;79.26;99190.25;5052380;28;20032;-39
2021/03/21 15:01:02;;;;;;;11.00;7.68;;;;;;;4.48;78.73;99181.53;5051792;28;20035;-39
2021/03/21 15:03:28;;;;;;;12.93;7.78;;;;;;;4.62;79.12;99172.00;5051653;28;20108;-39
2021/03/21 15:05:56;;;;;;;12.18;8.23;;;;;;;4.77;78.48;99177.31;5050215;28;20124;-40
2021/03/21 15:08:22;;;;;;;11.82;7.60;;;;;;;4.67;78.35;99164.41;5052057;28;20033;-39
2021/03/21 15:10:48;;;;;;;11.23;7.10;;;;;;;4.61;77.54;99157.22;5051897;28;20057;-39
2021/03/21 15:13:13;;;;;;;11.32;7.15;;;;;;;4.66;77.71;99159.28;5052038;28;20146;-40
2021/03/21 15:15:41;;;;;;;13.45;7.80;;;;;;;4.85;77.50;99155.31;5051804;28;20056;-48
2021/03/21 15:18:07;;;;;;;12.18;8.20;;;;;;;4.94;76.97;99154.25;5049898;28;20024;-47
2021/03/21 15:20:36;;;;;;;11.40;7.60;;;;;;;4.72;77.45;99155.13;5051629;28;20028;-51
2021/03/21 15:23:03;;;;;;;11.90;7.93;;;;;;;4.62;77.13;99153.56;5051235;28;20115;-52
2021/03/21 15:25:29;;;;;;;13.07;8.68;;;;;;;4.55;78.93;99152.66;5051410;28;20036;-51
2021/03/21 15:27:55;;;;;;;14.20;8.50;;;;;;;4.42;78.40;99157.72;5049064;28;20469;-52
2021/03/21 15:30:21;;;;;;;11.90;7.82;;;;;;;4.47;78.01;99155.34;5051476;28;20107;-49
2021/03/21 15:32:47;;;;;;;13.02;7.82;;;;;;;4.37;78.79;99162.69;5050238;28;20033;-51
2021/03/21 15:35:13;;;;;;;14.80;8.95;;;;;;;4.26;78.74;99161.28;5050564;28;20025;-51
2021/03/21 15:37:39;;;;;;;13.25;8.43;;;;;;;4.19;79.34;99142.75;5047592;28;20047;-51
2021/03/21 15:40:05;;;;;;;14.38;8.38;;;;;;;4.49;78.61;99129.63;5037838;28;20024;-49
2021/03/21 15:42:30;;;;;;;14.98;9.13;;;;;;;4.82;78.01;99121.44;5037715;28;20542;-52
2021/03/21 15:44:56;;;;;;;14.10;8.63;;;;;;;4.64;78.02;99129.66;5037689;28;20100;-52
2021/03/21 15:47:21;;;;;;;12.70;7.97;;;;;;;4.67;78.34;99124.06;5040781;28;20025;-52
2021/03/21 15:49:47;;;;;;;15.27;8.05;;;;;;;4.72;77.87;99131.41;5039273;28;20044;-53
2021/03/21 15:52:12;;;;;;;11.75;7.35;;;;;;;4.62;77.76;99116.66;5040548;28;20067;-51
2021/03/21 15:54:38;;;;;;;13.73;8.07;;;;;;;4.61;78.59;99115.03;5039642;28;20083;-52
2021/03/21 15:57:04;;;;;;;13.10;8.27;;;;;;;4.68;78.35;99115.13;5041348;28;20487;-50
2021/03/21 15:59:30;;;;;;;12.68;8.40;;;;;;;4.65;78.56;99116.31;5041301;28;20036;-40
2021/03/21 16:01:55;;;;;;;12.25;8.15;;;;;;;4.60;77.97;99112.59;5032003;28;20052;-40
2021/03/21 16:04:21;;;;;;;16.42;8.75;;;;;;;4.67;78.51;99124.06;5030746;28;20054;-40
2021/03/21 16:06:47;;;;;;;12.77;8.55;;;;;;;4.43;79.73;99117.19;5031284;28;20025;-41
2021/03/21 16:09:12;;;;;;;15.65;8.70;;;;;;;4.44;79.35;99114.38;5033606;28;20032;-41
2021/03/21 16:11:38;;;;;;;53.70;26.10;;;;;;;4.34;80.03;99123.53;5050668;28;20017;-40
2021/03/21 16:14:03;;;;;;;14.85;9.25;;;;;;;4.49;79.92;99127.00;5050572;28;20443;-40
2021/03/21 16:16:29;;;;;;;12.93;9.20;;;;;;;4.51;78.99;99125.00;5050120;28;20021;-40
2021/03/21 16:18:54;;;;;;;16.75;8.82;;;;;;;4.32;80.08;99144.78;5050394;28;20020;-41
2021/03/21 16:21:20;;;;;;;15.85;9.10;;;;;;;4.24;80.10;99121.94;5049877;28;20025;-50
2021/03/21 16:23:47;;;;;;;14.02;8.70;;;;;;;4.10;80.17;99101.66;5047979;28;20029;-50
2021/03/21 16:26:12;;;;;;;11.05;7.03;;;;;;;3.84;79.78;99118.63;5049727;28;20495;-51
2021/03/21 16:28:39;;;;;;;14.48;9.13;;;;;;;3.77;81.86;99130.88;5049948;28;20032;-40
2021/03/21 16:31:05;;;;;;;14.68;8.75;;;;;;;4.19;80.57;99121.69;5049782;28;20029;-49
2021/03/21 16:33:30;;;;;;;13.82;8.95;;;;;;;4.10;80.17;99114.84;5049636;28;20110;-52
2021/03/21 16:35:56;;;;;;;13.15;7.82;;;;;;;3.78;79.95;99111.44;5048193;28;20128;-40
2021/03/21 16:38:22;;;;;;;14.32;8.85;;;;;;;3.64;81.97;99117.47;5049220;28;20017;-40
2021/03/21 16:40:53;;;;;;;12.98;8.45;;;;;;;4.17;80.45;99109.66;5048539;28;20090;-41
2021/03/21 16:43:25;;;;;;;16.40;9.35;;;;;;;4.18;79.88;99104.22;5047646;28;20404;-47
2021/03/21 16:45:53;;;;;;;16.08;9.35;;;;;;;4.01;79.69;99100.91;5049636;28;20021;-50
2021/03/21 16:48:19;;;;;;;12.95;8.35;;;;;;;3.91;80.48;99095.88;5049610;28;20125;-50
2021/03/21 16:50:44;;;;;;;15.43;9.48;;;;;;;4.10;81.58;99084.06;5049244;28;20020;-50
2021/03/21 16:53:10;;;;;;;15.50;9.48;;;;;;;4.24;81.03;99076.38;5048179;28;20098;-49
2021/03/21 16:55:36;;;;;;;16.15;9.40;;;;;;;4.37;80.55;99065.22;5049607;28;20017;-49
2021/03/21 16:58:02;;;;;;;16.15;9.38;;;;;;;4.07;80.51;99078.31;5049422;28;20454;-40
2021/03/21 17:00:27;;;;;;;18.50;10.10;;;;;;;4.01;81.09;99057.97;5049455;28;20017;-39
2021/03/21 17:02:53;;;;;;;19.27;10.18;;;;;;;3.91;82.16;99063.47;5049439;28;20051;-39
2021/03/21 17:05:19;;;;;;;16.95;9.70;;;;;;;4.01;80.88;99082.47;5049074;28;20429;-40
2021/03/21 17:07:47;;;;;;;18.52;9.38;;;;;;;4.09;80.75;99094.75;5049327;28;20017;-39
2021/03/21 17:10:13;;;;;;;19.65;10.07;;;;;;;4.20;80.47;99096.97;5049051;28;20035;-41
2021/03/21 17:12:38;;;;;;;17.75;10.07;;;;;;;3.92;80.80;99089.63;5049532;28;20029;-41
2021/03/21 17:15:06;;;;;;;21.60;10.98;;;;;;;3.96;80.45;99070.84;5050384;28;20100;-40
2021/03/21 17:17:31;;;;;;;25.67;11.95;;;;;;;4.05;81.19;99085.56;5049966;28;20158;-40
2021/03/21 17:19:57;;;;;;;21.50;11.80;;;;;;;4.00;81.41;99093.19;5050262;28;20193;-41
2021/03/21 17:22:22;;;;;;;22.92;11.05;;;;;;;4.16;80.07;99110.69;5050127;28;20519;-40
2021/03/21 17:24:54;;;;;;;24.88;11.90;;;;;;;4.36;79.24;99111.00;5050268;28;20032;-40
2021/03/21 17:27:20;;;;;;;24.70;11.50;;;;;;;4.08;80.49;99108.94;5050184;28;20020;-40
2021/03/21 17:29:46;;;;;;;22.98;10.50;;;;;;;4.05;80.03;99111.91;5050318;28;20126;-42
2021/03/21 17:32:12;;;;;;;22.00;11.27;;;;;;;3.87;81.00;99096.44;5050317;28;20021;-41
2021/03/21 17:34:37;;;;;;;23.15;11.10;;;;;;;4.03;80.35;99100.75;5050201;28;20030;-39
2021/03/21 17:37:03;;;;;;;19.33;10.00;;;;;;;3.95;80.09;99104.25;5041190;28;20029;-40
2021/03/21 17:39:28;;;;;;;16.15;9.20;;;;;;;3.94;81.15;99101.78;5030067;28;20029;-40
2021/03/21 17:41:54;;;;;;;15.90;8.73;;;;;;;4.18;79.51;99101.59;5030009;28;20029;-51
2021/03/21 17:44:19;;;;;;;19.23;9.75;;;;;;;4.24;78.02;99103.50;5029286;28;20029;-51
2021/03/21 17:46:45;;;;;;;15.90;9.48;;;;;;;4.10;79.37;99109.56;5028220;28;20029;-51
2021/03/21 17:49:11;;;;;;;18.52;9.90;;;;;;;3.99;80.10;99104.72;5029803;28;20025;-52
2021/03/21 17:51:36;;;;;;;19.05;9.60;;;;;;;3.90;81.25;99107.44;5030916;28;20032;-49
2021/03/21 17:54:02;;;;;;;17.65;9.52;;;;;;;4.07;79.58;99108.13;5033961;28;20025;-50
2021/03/21 17:56:27;;;;;;;18.30;10.30;;;;;;;3.72;80.25;99096.34;5033694;28;20025;-52
2021/03/21 17:58:53;;;;;;;19.17;11.02;;;;;;;3.98;80.67;99085.47;5033838;28;20405;-53
2021/03/21 18:01:23;;;;;;;17.45;9.43;;;;;;;3.82;79.87;99083.78;5034028;28;20025;-51
2021/03/21 18:03:48;;;;;;;20.35;10.77;;;;;;;3.71;80.36;99087.66;5033690;28;20029;-50
2021/03/21 18:06:14;;;;;;;21.02;11.50;;;;;;;3.95;79.87;99071.84;5033403;28;20056;-52
2021/03/21 18:08:39;;;;;;;17.23;9.10;;;;;;;3.72;80.66;99093.72;5033108;28;20032;-52
2021/03/21 18:11:06;;;;;;;15.82;8.57;;;;;;;3.63;80.69;99092.13;5032037;28;20018;-49
2021/03/21 18:13:31;;;;;;;12.40;7.07;;;;;;;3.84;79.96;99086.25;5032288;28;20030;-52
2021/03/21 18:15:57;;;;;;;11.90;7.25;;;;;;;3.58;80.34;99097.94;5032558;28;20040;-50
2021/03/21 18:18:23;;;;;;;13.82;7.45;;;;;;;3.68;79.93;99102.97;5032342;28;20080;-52
2021/03/21 18:20:48;;;;;;;8.13;4.90;;;;;;;3.94;78.96;99101.78;5032558;28;20017;-48
2021/03/21 18:23:14;;;;;;;9.23;5.50;;;;;;;3.78;79.66;99100.91;5032547;28;20424;-51
2021/03/21 18:25:40;;;;;;;6.78;4.43;;;;;;;3.52;79.89;99088.09;5032344;28;20025;-52
2021/03/21 18:28:05;;;;;;;9.25;5.70;;;;;;;3.61;79.72;99073.06;5032060;28;20022;-49
2021/03/21 18:30:33;;;;;;;7.32;4.65;;;;;;;3.55;79.65;99076.41;5032449;28;20140;-51
2021/03/21 18:32:58;;;;;;;6.50;4.30;;;;;;;3.61;80.07;99075.72;5032605;28;20492;-49
2021/03/21 18:35:24;;;;;;;7.20;4.57;;;;;;;3.36;80.33;99067.97;5031998;28;20017;-50
2021/03/21 18:37:51;;;;;;;7.15;4.40;;;;;;;3.58;80.63;99076.88;5047233;28;20535;-49
2021/03/21 18:40:17;;;;;;;7.10;4.65;;;;;;;3.62;80.21;99075.53;5052319;28;20043;-49
2021/03/21 18:42:43;;;;;;;6.35;4.10;;;;;;;3.49;79.82;99070.03;5052438;28;20028;-49
2021/03/21 18:45:09;;;;;;;41.72;19.92;;;;;;;3.55;80.07;99076.41;5051863;28;20021;-48
2021/03/21 18:47:35;;;;;;;5.85;3.92;;;;;;;3.58;80.01;99076.03;5051502;28;20511;-40
2021/03/21 18:50:00;;;;;;;10.93;3.90;;;;;;;5.70;75.87;99068.69;5051838;28;20048;-40
2021/03/21 18:52:25;;;;;;;6.32;3.90;;;;;;;4.95;75.38;99070.66;5032576;28;20470;-39
2021/03/21 18:54:51;;;;;;;120.90;8.85;;;;;;;4.44;81.61;99063.50;5031673;28;20025;-40
2021/03/21 18:57:17;;;;;;;10.95;4.35;;;;;;;4.24;78.69;99056.09;5031592;28;20104;-40
2021/03/21 18:59:43;;;;;;;10.70;4.05;;;;;;;4.17;80.51;99057.84;5031826;28;20053;-40
2021/03/21 19:02:08;;;;;;;7.93;4.30;;;;;;;4.09;80.75;99050.00;5031455;28;20106;-40
2021/03/21 19:04:34;;;;;;;18.17;4.35;;;;;;;4.00;80.02;99051.06;5031460;28;20054;-40
2021/03/21 19:06:59;;;;;;;6.90;4.03;;;;;;;4.18;80.24;99042.84;5038545;28;20072;-40
2021/03/21 19:09:25;;;;;;;6.10;4.18;;;;;;;4.00;80.65;99046.63;5031348;28;20017;-40
2021/03/21 19:11:51;;;;;;;7.22;4.35;;;;;;;3.91;80.41;99031.91;5032385;28;20113;-40
2021/03/21 19:14:28;;;;;;;7.75;4.82;;;;;;;3.62;80.37;99035.25;5013630;28;20049;-41
2021/03/21 19:16:54;;;;;;;7.35;4.30;;;;;;;3.38;81.36;99030.97;5031919;28;20600;-41
2021/03/21 19:19:20;;;;;;;9.25;5.03;;;;;;;3.48;82.76;99034.19;5031189;28;20013;-40
2021/03/21 19:21:46;;;;;;;6.65;4.25;;;;;;;3.62;82.15;99027.38;5029999;28;20056;-49
2021/03/21 19:24:11;;;;;;;7.60;4.60;;;;;;;3.47;80.84;99032.56;5035490;28;20124;-48
2021/03/21 19:26:37;;;;;;;6.78;4.07;;;;;;;3.71;80.72;99040.28;5051123;28;20092;-48
2021/03/21 19:29:02;;;;;;;6.10;3.90;;;;;;;3.77;80.37;99038.75;5036156;28;20091;-48
2021/03/21 19:31:28;;;;;;;6.82;4.50;;;;;;;3.49;81.76;99025.31;5031081;28;20064;-50
2021/03/21 19:33:53;;;;;;;5.75;3.97;;;;;;;3.45;80.76;99006.44;5031285;28;20032;-49
2021/03/21 19:36:19;;;;;;;6.60;4.30;;;;;;;3.07;82.47;99005.53;5033655;28;20025;-50
2021/03/21 19:38:44;;;;;;;7.65;4.70;;;;;;;5.47;81.81;99007.16;5050585;28;20052;-52
2021/03/21 19:41:10;;;;;;;6.13;4.10;;;;;;;4.34;76.69;99005.81;5050669;28;20024;-51
2021/03/21 19:43:36;;;;;;;5.53;4.00;;;;;;;3.57;79.41;98998.13;5050375;28;20128;-50
2021/03/21 19:46:03;;;;;;;5.78;3.92;;;;;;;3.55;81.42;98987.78;5050453;28;20048;-52
2021/03/21 19:48:29;;;;;;;7.05;4.25;;;;;;;4.94;87.28;98988.13;5050543;28;20114;-52
2021/03/21 19:50:55;;;;;;;5.47;3.72;;;;;;;5.08;74.78;98995.19;5050261;28;20048;-51
2021/03/21 19:53:23;;;;;;;6.13;4.50;;;;;;;4.41;76.24;98987.44;5050404;28;20330;-52
2021/03/21 19:55:49;;;;;;;6.22;4.32;;;;;;;3.69;78.24;98957.22;5050458;28;20029;-51
2021/03/21 19:58:14;;;;;;;6.88;4.55;;;;;;;3.48;79.88;98976.31;5051244;28;20401;-39
2021/03/21 20:00:40;;;;;;;7.18;4.88;;;;;;;3.49;79.89;98970.88;5050692;28;20025;-40
2021/03/21 20:03:06;;;;;;;6.00;4.40;;;;;;;3.36;80.56;98967.22;5050153;28;20025;-40
2021/03/21 20:05:32;;;;;;;9.13;5.10;;;;;;;3.51;80.56;98968.06;5050075;28;20045;-39
2021/03/21 20:07:57;;;;;;;8.52;5.57;;;;;;;3.51;80.67;98953.09;5050083;28;20064;-39
2021/03/21 20:10:23;;;;;;;8.43;5.50;;;;;;;3.17;81.80;98958.78;5050138;28;20052;-39
2021/03/21 20:12:50;;;;;;;9.10;5.60;;;;;;;3.09;81.78;98964.09;5048850;28;20392;-44
2021/03/21 20:15:15;;;;;;;8.93;5.85;;;;;;;3.26;81.54;98952.47;5049669;28;20520;-39
2021/03/21 20:17:41;;;;;;;8.63;5.70;;;;;;;3.44;80.72;98949.53;5050250;28;20017;-43
2021/03/21 20:20:10;;;;;;;8.65;6.13;;;;;;;3.09;81.96;98961.47;5050518;28;20102;-42
2021/03/21 20:22:36;;;;;;;10.00;6.20;;;;;;;2.93;82.47;98957.13;5050512;28;20025;-38
2021/03/21 20:25:04;;;;;;;8.85;5.85;;;;;;;2.86;81.91;98943.06;5049876;28;20654;-39
2021/03/21 20:27:29;;;;;;;8.18;5.65;;;;;;;3.10;82.32;98942.91;5049833;28;20044;-41
2021/03/21 20:29:55;;;;;;;8.70;5.88;;;;;;;3.03;81.23;98947.22;5050234;28;20059;-39
2021/03/21 20:32:20;;;;;;;7.95;5.82;;;;;;;2.97;82.82;98947.06;5049616;28;20029;-39
2021/03/21 20:34:46;;;;;;;9.40;6.20;;;;;;;2.97;82.38;98957.59;5049909;28;20493;-39
2021/03/21 20:37:11;;;;;;;8.63;5.68;;;;;;;3.10;81.96;98963.09;5039661;28;20374;-39
2021/03/21 20:39:37;;;;;;;9.18;6.60;;;;;;;3.07;81.72;98958.19;5030251;28;20021;-48
2021/03/21 20:42:02;;;;;;;11.55;5.93;;;;;;;3.12;80.63;98958.47;5030396;28;20025;-49
2021/03/21 20:44:28;;;;;;;10.90;7.43;;;;;;;3.03;82.21;98947.22;5031017;28;20055;-50
2021/03/21 20:46:53;;;;;;;9.57;6.15;;;;;;;2.91;81.88;98943.31;5030820;28;20516;-50
2021/03/21 20:49:19;;;;;;;10.95;6.95;;;;;;;2.91;82.40;98932.81;5047667;28;20400;-51
2021/03/21 20:51:44;;;;;;;10.02;7.10;;;;;;;3.25;81.80;98934.25;5038123;28;20025;-49
2021/03/21 20:54:10;;;;;;;10.45;6.43;;;;;;;2.86;81.83;98922.03;5030972;28;20167;-51
2021/03/21 20:56:36;;;;;;;11.40;7.28;;;;;;;2.93;82.69;98918.53;5040704;28;20389;-50
2021/03/21 20:59:01;;;;;;;12.60;8.32;;;;;;;3.19;81.72;98914.72;5050315;28;20036;-50
2021/03/21 21:01:27;;;;;;;24.05;12.40;;;;;;;3.05;82.46;98905.78;5050693;28;20048;-50
2021/03/21 21:03:53;;;;;;;10.40;6.63;;;;;;;2.62;83.28;98907.22;5050263;28;20476;-53
2021/03/21 21:06:18;;;;;;;9.95;6.97;;;;;;;2.82;83.61;98900.53;5049901;28;20088;-50
2021/03/21 21:08:45;;;;;;;9.88;6.13;;;;;;;2.83;83.38;98896.91;5050312;28;20025;-50
2021/03/21 21:11:10;;;;;;;10.85;6.80;;;;;;;2.84;82.91;98897.72;5050216;28;20029;-51
2021/03/21 21:13:35;;;;;;;15.80;9.27;;;;;;;2.87;83.50;98894.75;5049734;28;20021;-51
2021/03/21 21:16:02;;;;;;;9.20;6.28;;;;;;;2.71;83.71;98903.56;5050279;28;20055;-49
2021/03/21 21:18:29;;;;;;;9.73;6.70;;;;;;;2.72;83.47;98918.31;5050319;28;20057;-52
2021/03/21 21:20:56;;;;;;;10.00;6.43;;;;;;;2.64;84.09;98903.41;5049554;28;20025;-50
2021/03/21 21:23:24;;;;;;;12.23;7.22;;;;;;;2.82;82.93;98903.16;5050136;28;20020;-49
2021/03/21 21:25:50;;;;;;;12.50;7.35;;;;;;;2.88;83.14;98885.88;5049871;28;20391;-51
2021/03/21 21:28:16;;;;;;;11.05;7.15;;;;;;;2.80;83.14;98883.28;5052951;28;20027;-48
2021/03/21 21:30:41;;;;;;;10.23;7.00;;;;;;;2.93;82.91;98873.00;5053870;28;20028;-51
2021/03/21 21:33:07;;;;;;;10.20;6.97;;;;;;;3.03;82.67;98868.34;5035249;28;20029;-49
2021/03/21 21:35:37;;;;;;;116.03;42.63;;;;;;;3.19;81.99;98871.84;5034006;28;20071;-49
2021/03/21 21:38:04;;;;;;;9.30;6.88;;;;;;;2.85;83.42;98866.00;5050483;28;20025;-49
2021/03/21 21:40:29;;;;;;;13.32;7.30;;;;;;;2.78;83.37;98864.25;5053853;28;20524;-49
2021/03/21 21:42:55;;;;;;;12.02;7.10;;;;;;;2.78;83.40;98846.69;5039863;28;20100;-49
2021/03/21 21:45:20;;;;;;;11.00;7.22;;;;;;;2.94;83.40;98854.44;5033811;28;20562;-51
2021/03/21 21:47:46;;;;;;;12.10;7.47;;;;;;;2.85;83.35;98846.78;5033811;28;20060;-52
2021/03/21 21:50:14;;;;;;;10.93;6.65;;;;;;;2.76;83.74;98858.34;5033914;28;20045;-53
2021/03/21 21:52:39;;;;;;;9.25;6.18;;;;;;;2.76;83.33;98846.06;5053415;28;20063;-49
2021/03/21 21:55:06;;;;;;;10.38;6.68;;;;;;;2.77;82.63;98839.78;5053666;28;20445;-52
2021/03/21 21:57:31;;;;;;;10.02;6.05;;;;;;;2.70;83.13;98810.78;5053784;28;20033;-52
2021/03/21 21:59:58;;;;;;;7.65;5.32;;;;;;;2.50;83.66;98814.84;5053408;28;20454;-50
2021/03/21 22:02:24;;;;;;;9.93;5.95;;;;;;;2.62;83.01;98815.25;5053559;28;20083;-50
2021/03/21 22:04:49;;;;;;;8.88;5.63;;;;;;;2.43;83.74;98812.09;5053086;28;20048;-50
2021/03/21 22:07:15;;;;;;;8.27;5.38;;;;;;;2.22;84.25;98831.09;5053278;28;20401;-48
2021/03/21 22:09:40;;;;;;;8.20;5.28;;;;;;;2.39;84.10;98829.19;5053384;28;20025;-52
2021/03/21 22:12:07;;;;;;;9.35;5.80;;;;;;;2.84;82.45;98818.91;5053298;28;20104;-51
2021/03/21 22:14:32;;;;;;;8.82;5.57;;;;;;;2.96;83.14;98801.69;5053330;28;20027;-51
2021/03/21 22:16:58;;;;;;;9.13;6.10;;;;;;;2.88;83.01;98797.31;5053286;28;20028;-49
2021/03/21 22:19:23;;;;;;;8.75;5.47;;;;;;;2.72;82.26;98787.78;5053089;28;20029;-52
2021/03/21 22:21:49;;;;;;;8.63;5.13;;;;;;;2.62;83.00;98775.84;5053261;28;20132;-53
2021/03/21 22:24:14;;;;;;;9.32;6.43;;;;;;;2.73;83.41;98780.69;5052856;28;20499;-51
2021/03/21 22:26:40;;;;;;;7.75;5.40;;;;;;;2.64;83.38;98779.13;5053116;28;20083;-51
2021/03/21 22:29:07;;;;;;;8.82;5.75;;;;;;;2.39;84.63;98752.22;5052648;28;20396;-48
2021/03/21 22:31:32;;;;;;;10.10;6.28;;;;;;;2.27;84.34;98747.38;5053020;28;20076;-49
2021/03/21 22:33:59;;;;;;;9.60;5.97;;;;;;;2.28;84.15;98730.63;5035029;28;20566;-49
2021/03/21 22:36:25;;;;;;;7.97;5.53;;;;;;;2.49;83.97;98729.97;5034889;28;20477;-49
2021/03/21 22:38:50;;;;;;;10.75;6.25;;;;;;;2.65;83.25;98736.91;5050984;28;20036;-48
2021/03/21 22:41:16;;;;;;;9.73;6.03;;;;;;;2.67;83.03;98749.88;5052232;28;20021;-52
2021/03/21 22:43:41;;;;;;;11.18;6.45;;;;;;;2.63;82.95;98752.06;5052513;28;20064;-52
2021/03/21 22:46:07;;;;;;;11.20;6.88;;;;;;;2.56;82.84;98751.09;5052644;28;20115;-51
2021/03/21 22:48:33;;;;;;;12.45;6.15;;;;;;;2.25;84.04;98759.88;5052553;28;20051;-48
2021/03/21 22:50:58;;;;;;;11.70;7.10;;;;;;;2.41;83.44;98755.50;5052292;28;20414;-49
2021/03/21 22:53:24;;;;;;;10.60;6.28;;;;;;;2.50;83.49;98768.38;5052563;28;20052;-49
2021/03/21 22:55:49;;;;;;;7.55;5.43;;;;;;;2.34;83.72;98771.13;5052578;28;20078;-50
2021/03/21 22:58:15;;;;;;;9.93;6.40;;;;;;;2.73;82.59;98778.88;5052597;28;20038;-48
2021/03/21 23:00:44;;;;;;;8.35;5.43;;;;;;;2.82;82.93;98761.25;5052189;28;20108;-50
2021/03/21 23:03:10;;;;;;;11.32;5.50;;;;;;;2.65;82.22;98741.38;5052459;28;20089;-49
2021/03/21 23:05:36;;;;;;;8.38;5.53;;;;;;;2.57;82.33;98731.75;5051898;28;20041;-51
2021/03/21 23:08:01;;;;;;;9.65;6.32;;;;;;;2.39;83.27;98729.41;5052309;28;20140;-49
2021/03/21 23:10:35;;;;;;;8.75;5.57;;;;;;;2.81;82.63;98716.75;5052211;28;20063;-55
2021/03/21 23:13:01;;;;;;;9.30;6.15;;;;;;;2.69;83.11;98722.44;5052413;28;20048;-51
2021/03/21 23:15:26;;;;;;;9.38;5.63;;;;;;;2.68;83.27;98720.78;5051988;28;20041;-50
2021/03/21 23:17:52;;;;;;;9.57;5.97;;;;;;;2.71;83.25;98696.81;5051698;28;20028;-48
2021/03/21 23:20:20;;;;;;;9.50;6.40;;;;;;;2.83;82.08;98704.25;5052170;28;20039;-51
2021/03/21 23:22:45;;;;;;;9.50;6.13;;;;;;;2.88;83.29;98696.66;5051998;28;20400;-52
2021/03/21 23:25:11;;;;;;;9.85;6.13;;;;;;;2.85;82.62;98707.50;5051908;28;20025;-50
2021/03/21 23:27:37;;;;;;;9.45;5.88;;;;;;;2.65;82.73;98686.19;5052098;28;20047;-52
2021/03/21 23:30:05;;;;;;;8.65;5.60;;;;;;;2.66;82.35;98691.25;5051921;28;20476;-52
2021/03/21 23:32:30;;;;;;;8.75;5.93;;;;;;;2.71;83.47;98685.47;5051684;28;20091;-49
2021/03/21 23:34:56;;;;;;;8.82;6.00;;;;;;;2.50;83.56;98679.09;5052000;28;20020;-52
2021/03/21 23:37:21;;;;;;;10.07;6.82;;;;;;;2.46;84.37;98669.13;5051651;28;20413;-50
2021/03/21 23:39:47;;;;;;;10.30;6.75;;;;;;;2.90;83.04;98660.50;5051537;28;20028;-49
2021/03/21 23:42:12;;;;;;;13.27;8.10;;;;;;;2.92;82.10;98656.69;5052266;28;20032;-49
2021/03/21 23:44:38;;;;;;;11.85;6.88;;;;;;;2.72;82.60;98651.16;5051853;28;20025;-51
2021/03/21 23:47:03;;;;;;;10.70;7.28;;;;;;;2.59;83.62;98644.88;5051576;28;20052;-51
2021/03/21 23:49:29;;;;;;;13.15;7.60;;;;;;;2.66;83.60;98643.97;5050850;28;20080;-51
2021/03/21 23:51:54;;;;;;;14.00;8.20;;;;;;;2.72;83.41;98635.38;5051257;28;20025;-49
2021/03/21 23:54:20;;;;;;;11.57;6.75;;;;;;;2.54;83.31;98629.66;5051679;28;20025;-49
2021/03/21 23:56:45;;;;;;;12.57;8.07;;;;;;;2.70;82.67;98649.69;5050257;28;20017;-39
2021/03/21 23:59:11;;;;;;;13.27;7.82;;;;;;;2.92;83.20;98632.22;5049783;28;20109;-39
